sensor_id;sensor_type;location;lat;lon;timestamp;P1;durP1;ratioP1;P2;durP2;ratioP2
36105;SDS011;22159;55.736;38.048;2022-09-03T00:00:44;0.30;;;0.30;;
36105;SDS011;22159;55.736;38.048;2022-09-03T00:08:34;1.40;;;0.40;;
36105;SDS011;22159;55.736;38.048;2022-09-03T00:13:34;0.70;;;0.30;;
36105;SDS011;22159;55.736;38.048;2022-09-03T00:16:02;0.52;;;0.20;;
36105;SDS011;22159;55.736;38.048;2022-09-03T00:18:34;1.42;;;0.50;;
36105;SDS011;22159;55.736;38.048;2022-09-03T00:21:01;1.17;;;0.32;;
36105;SDS011;22159;55.736;38.048;2022-09-03T00:23:32;0.82;;;0.10;;
36105;SDS011;22159;55.736;38.048;2022-09-03T00:26:13;0.68;;;0.20;;
36105;SDS011;22159;55.736;38.048;2022-09-03T00:31:12;0.30;;;0.30;;
36105;SDS011;22159;55.736;38.048;2022-09-03T00:33:42;2.15;;;0.22;;
36105;SDS011;22159;55.736;38.048;2022-09-03T00:38:36;0.20;;;0.10;;
36105;SDS011;22159;55.736;38.048;2022-09-03T00:46:46;0.63;;;0.20;;
36105;SDS011;22159;55.736;38.048;2022-09-03T00:51:22;0.43;;;0.30;;
36105;SDS011;22159;55.736;38.048;2022-09-03T00:54:04;0.68;;;0.30;;
36105;SDS011;22159;55.736;38.048;2022-09-03T00:59:07;0.17;;;0.10;;
36105;SDS011;22159;55.736;38.048;2022-09-03T01:09:42;1.10;;;0.35;;
36105;SDS011;22159;55.736;38.048;2022-09-03T01:17:13;0.85;;;0.20;;
36105;SDS011;22159;55.736;38.048;2022-09-03T01:40:17;0.20;;;0.20;;
36105;SDS011;22159;55.736;38.048;2022-09-03T01:42:55;1.13;;;0.20;;
36105;SDS011;22159;55.736;38.048;2022-09-03T02:00:38;0.20;;;0.20;;
36105;SDS011;22159;55.736;38.048;2022-09-03T02:03:06;0.50;;;0.20;;
36105;SDS011;22159;55.736;38.048;2022-09-03T02:05:33;0.10;;;0.10;;
36105;SDS011;22159;55.736;38.048;2022-09-03T02:08:03;0.38;;;0.20;;
36105;SDS011;22159;55.736;38.048;2022-09-03T02:13:42;0.32;;;0.28;;
36105;SDS011;22159;55.736;38.048;2022-09-03T02:15:43;0.40;;;0.20;;
36105;SDS011;22159;55.736;38.048;2022-09-03T02:18:20;0.45;;;0.20;;
36105;SDS011;22159;55.736;38.048;2022-09-03T02:20:49;0.30;;;0.30;;
36105;SDS011;22159;55.736;38.048;2022-09-03T02:23:17;0.40;;;0.20;;
36105;SDS011;22159;55.736;38.048;2022-09-03T02:25:44;0.10;;;0.10;;
36105;SDS011;22159;55.736;38.048;2022-09-03T02:28:12;0.20;;;0.20;;
36105;SDS011;22159;55.736;38.048;2022-09-03T02:30:39;0.40;;;0.10;;
36105;SDS011;22159;55.736;38.048;2022-09-03T02:33:05;0.52;;;0.17;;
36105;SDS011;22159;55.736;38.048;2022-09-03T02:35:32;1.77;;;0.28;;
36105;SDS011;22159;55.736;38.048;2022-09-03T02:38:11;0.95;;;0.20;;
36105;SDS011;22159;55.736;38.048;2022-09-03T02:40:37;1.05;;;0.10;;
36105;SDS011;22159;55.736;38.048;2022-09-03T02:43:04;0.47;;;0.30;;
36105;SDS011;22159;55.736;38.048;2022-09-03T02:45:32;0.82;;;0.25;;
36105;SDS011;22159;55.736;38.048;2022-09-03T02:48:01;0.30;;;0.25;;
36105;SDS011;22159;55.736;38.048;2022-09-03T02:50:27;1.20;;;0.30;;
36105;SDS011;22159;55.736;38.048;2022-09-03T02:52:53;1.40;;;0.30;;
36105;SDS011;22159;55.736;38.048;2022-09-03T02:55:19;0.30;;;0.10;;
36105;SDS011;22159;55.736;38.048;2022-09-03T02:57:46;1.05;;;0.20;;
36105;SDS011;22159;55.736;38.048;2022-09-03T03:00:12;0.95;;;0.20;;
36105;SDS011;22159;55.736;38.048;2022-09-03T03:02:38;0.93;;;0.20;;
36105;SDS011;22159;55.736;38.048;2022-09-03T03:05:05;2.60;;;0.40;;
36105;SDS011;22159;55.736;38.048;2022-09-03T03:07:33;1.83;;;0.60;;
36105;SDS011;22159;55.736;38.048;2022-09-03T03:10:01;1.60;;;0.63;;
36105;SDS011;22159;55.736;38.048;2022-09-03T03:12:27;1.73;;;0.70;;
36105;SDS011;22159;55.736;38.048;2022-09-03T03:14:53;3.33;;;0.77;;
36105;SDS011;22159;55.736;38.048;2022-09-03T03:17:19;2.70;;;0.68;;
36105;SDS011;22159;55.736;38.048;2022-09-03T03:19:45;2.10;;;0.60;;
36105;SDS011;22159;55.736;38.048;2022-09-03T03:22:12;3.20;;;0.50;;
36105;SDS011;22159;55.736;38.048;2022-09-03T03:24:38;2.83;;;0.60;;
36105;SDS011;22159;55.736;38.048;2022-09-03T03:27:04;3.28;;;0.63;;
36105;SDS011;22159;55.736;38.048;2022-09-03T03:29:32;4.13;;;0.80;;
36105;SDS011;22159;55.736;38.048;2022-09-03T03:31:58;1.80;;;0.90;;
36105;SDS011;22159;55.736;38.048;2022-09-03T03:34:24;1.80;;;0.70;;
36105;SDS011;22159;55.736;38.048;2022-09-03T03:36:50;4.88;;;0.90;;
36105;SDS011;22159;55.736;38.048;2022-09-03T03:39:16;5.38;;;0.70;;
36105;SDS011;22159;55.736;38.048;2022-09-03T03:41:42;5.53;;;1.08;;
36105;SDS011;22159;55.736;38.048;2022-09-03T03:44:08;4.32;;;0.82;;
36105;SDS011;22159;55.736;38.048;2022-09-03T03:46:35;2.38;;;0.70;;
36105;SDS011;22159;55.736;38.048;2022-09-03T03:49:02;0.93;;;0.43;;
36105;SDS011;22159;55.736;38.048;2022-09-03T03:51:30;2.55;;;0.70;;
36105;SDS011;22159;55.736;38.048;2022-09-03T03:53:56;1.85;;;0.70;;
36105;SDS011;22159;55.736;38.048;2022-09-03T03:56:23;1.40;;;0.60;;
36105;SDS011;22159;55.736;38.048;2022-09-03T03:58:50;2.08;;;0.63;;
36105;SDS011;22159;55.736;38.048;2022-09-03T04:01:17;2.30;;;0.70;;
36105;SDS011;22159;55.736;38.048;2022-09-03T04:03:44;4.32;;;0.85;;
36105;SDS011;22159;55.736;38.048;2022-09-03T04:06:11;1.70;;;0.65;;
36105;SDS011;22159;55.736;38.048;2022-09-03T04:08:38;2.15;;;0.75;;
36105;SDS011;22159;55.736;38.048;2022-09-03T04:11:05;2.65;;;0.73;;
36105;SDS011;22159;55.736;38.048;2022-09-03T04:13:32;1.40;;;0.68;;
36105;SDS011;22159;55.736;38.048;2022-09-03T04:16:02;1.90;;;0.77;;
36105;SDS011;22159;55.736;38.048;2022-09-03T04:18:29;1.23;;;0.70;;
36105;SDS011;22159;55.736;38.048;2022-09-03T04:20:59;3.00;;;0.68;;
36105;SDS011;22159;55.736;38.048;2022-09-03T04:23:28;3.08;;;0.65;;
36105;SDS011;22159;55.736;38.048;2022-09-03T04:25:54;1.27;;;0.55;;
36105;SDS011;22159;55.736;38.048;2022-09-03T04:28:20;2.13;;;0.50;;
36105;SDS011;22159;55.736;38.048;2022-09-03T04:30:46;1.60;;;0.60;;
36105;SDS011;22159;55.736;38.048;2022-09-03T04:33:12;1.48;;;0.47;;
36105;SDS011;22159;55.736;38.048;2022-09-03T04:35:38;2.45;;;0.55;;
36105;SDS011;22159;55.736;38.048;2022-09-03T04:38:06;2.20;;;0.70;;
36105;SDS011;22159;55.736;38.048;2022-09-03T04:40:32;2.47;;;0.73;;
36105;SDS011;22159;55.736;38.048;2022-09-03T04:42:58;3.00;;;0.73;;
36105;SDS011;22159;55.736;38.048;2022-09-03T04:45:25;2.35;;;0.52;;
36105;SDS011;22159;55.736;38.048;2022-09-03T04:47:56;1.65;;;0.80;;
36105;SDS011;22159;55.736;38.048;2022-09-03T04:50:22;3.38;;;0.80;;
36105;SDS011;22159;55.736;38.048;2022-09-03T04:52:48;4.80;;;0.65;;
36105;SDS011;22159;55.736;38.048;2022-09-03T04:55:14;2.58;;;0.65;;
36105;SDS011;22159;55.736;38.048;2022-09-03T04:57:40;4.28;;;0.43;;
36105;SDS011;22159;55.736;38.048;2022-09-03T05:00:07;1.83;;;0.60;;
36105;SDS011;22159;55.736;38.048;2022-09-03T05:02:35;1.45;;;0.70;;
36105;SDS011;22159;55.736;38.048;2022-09-03T05:05:02;2.78;;;0.50;;
36105;SDS011;22159;55.736;38.048;2022-09-03T05:07:28;2.20;;;0.50;;
36105;SDS011;22159;55.736;38.048;2022-09-03T05:10:04;4.43;;;0.57;;
36105;SDS011;22159;55.736;38.048;2022-09-03T05:12:30;7.97;;;0.80;;
36105;SDS011;22159;55.736;38.048;2022-09-03T05:14:57;3.97;;;0.50;;
36105;SDS011;22159;55.736;38.048;2022-09-03T05:17:24;5.47;;;0.70;;
36105;SDS011;22159;55.736;38.048;2022-09-03T05:19:50;3.42;;;0.88;;
36105;SDS011;22159;55.736;38.048;2022-09-03T05:22:17;5.95;;;0.95;;
36105;SDS011;22159;55.736;38.048;2022-09-03T05:24:48;7.75;;;1.42;;
36105;SDS011;22159;55.736;38.048;2022-09-03T05:27:15;10.05;;;1.90;;
36105;SDS011;22159;55.736;38.048;2022-09-03T05:29:42;7.68;;;2.00;;
36105;SDS011;22159;55.736;38.048;2022-09-03T05:32:08;7.82;;;2.10;;
36105;SDS011;22159;55.736;38.048;2022-09-03T05:34:34;9.07;;;2.38;;
36105;SDS011;22159;55.736;38.048;2022-09-03T05:37:00;14.50;;;2.25;;
36105;SDS011;22159;55.736;38.048;2022-09-03T05:39:26;15.80;;;2.50;;
36105;SDS011;22159;55.736;38.048;2022-09-03T05:41:52;10.95;;;2.38;;
36105;SDS011;22159;55.736;38.048;2022-09-03T05:44:19;7.78;;;2.03;;
36105;SDS011;22159;55.736;38.048;2022-09-03T05:46:48;9.30;;;2.05;;
36105;SDS011;22159;55.736;38.048;2022-09-03T05:49:15;9.13;;;2.05;;
36105;SDS011;22159;55.736;38.048;2022-09-03T05:51:42;10.93;;;2.15;;
36105;SDS011;22159;55.736;38.048;2022-09-03T05:54:09;8.00;;;2.10;;
36105;SDS011;22159;55.736;38.048;2022-09-03T05:56:35;7.68;;;2.20;;
36105;SDS011;22159;55.736;38.048;2022-09-03T05:59:04;9.60;;;1.88;;
36105;SDS011;22159;55.736;38.048;2022-09-03T06:01:32;7.93;;;2.17;;
36105;SDS011;22159;55.736;38.048;2022-09-03T06:03:59;9.18;;;2.03;;
36105;SDS011;22159;55.736;38.048;2022-09-03T06:06:27;5.93;;;1.95;;
36105;SDS011;22159;55.736;38.048;2022-09-03T06:08:53;5.68;;;1.75;;
36105;SDS011;22159;55.736;38.048;2022-09-03T06:11:20;4.88;;;1.75;;
36105;SDS011;22159;55.736;38.048;2022-09-03T06:13:50;6.38;;;1.73;;
36105;SDS011;22159;55.736;38.048;2022-09-03T06:16:17;6.70;;;1.83;;
36105;SDS011;22159;55.736;38.048;2022-09-03T06:18:43;7.40;;;1.63;;
36105;SDS011;22159;55.736;38.048;2022-09-03T06:21:09;6.43;;;1.67;;
36105;SDS011;22159;55.736;38.048;2022-09-03T06:23:35;6.15;;;1.60;;
36105;SDS011;22159;55.736;38.048;2022-09-03T06:26:02;5.28;;;1.63;;
36105;SDS011;22159;55.736;38.048;2022-09-03T06:28:29;4.72;;;1.63;;
36105;SDS011;22159;55.736;38.048;2022-09-03T06:30:59;6.18;;;1.60;;
36105;SDS011;22159;55.736;38.048;2022-09-03T06:33:26;5.30;;;1.55;;
36105;SDS011;22159;55.736;38.048;2022-09-03T06:35:54;5.30;;;1.58;;
36105;SDS011;22159;55.736;38.048;2022-09-03T06:38:27;6.55;;;1.80;;
36105;SDS011;22159;55.736;38.048;2022-09-03T06:40:56;6.68;;;1.58;;
36105;SDS011;22159;55.736;38.048;2022-09-03T06:43:23;5.97;;;1.80;;
36105;SDS011;22159;55.736;38.048;2022-09-03T06:45:57;5.63;;;1.83;;
36105;SDS011;22159;55.736;38.048;2022-09-03T06:48:23;6.70;;;1.33;;
36105;SDS011;22159;55.736;38.048;2022-09-03T06:50:56;6.32;;;1.80;;
36105;SDS011;22159;55.736;38.048;2022-09-03T06:53:23;6.70;;;1.27;;
36105;SDS011;22159;55.736;38.048;2022-09-03T06:55:57;5.65;;;1.60;;
36105;SDS011;22159;55.736;38.048;2022-09-03T06:58:24;4.07;;;1.35;;
36105;SDS011;22159;55.736;38.048;2022-09-03T07:00:50;5.85;;;1.38;;
36105;SDS011;22159;55.736;38.048;2022-09-03T07:03:17;4.38;;;1.45;;
36105;SDS011;22159;55.736;38.048;2022-09-03T07:05:44;5.35;;;1.35;;
36105;SDS011;22159;55.736;38.048;2022-09-03T07:08:10;11.50;;;1.60;;
36105;SDS011;22159;55.736;38.048;2022-09-03T07:10:36;6.60;;;1.98;;
36105;SDS011;22159;55.736;38.048;2022-09-03T07:13:04;7.10;;;1.63;;
36105;SDS011;22159;55.736;38.048;2022-09-03T07:15:31;9.20;;;1.80;;
36105;SDS011;22159;55.736;38.048;2022-09-03T07:17:57;7.07;;;2.10;;
36105;SDS011;22159;55.736;38.048;2022-09-03T07:20:23;7.45;;;1.60;;
36105;SDS011;22159;55.736;38.048;2022-09-03T07:22:49;8.98;;;2.00;;
36105;SDS011;22159;55.736;38.048;2022-09-03T07:25:15;5.53;;;1.77;;
36105;SDS011;22159;55.736;38.048;2022-09-03T07:27:42;7.60;;;1.70;;
36105;SDS011;22159;55.736;38.048;2022-09-03T07:30:08;11.43;;;2.00;;
36105;SDS011;22159;55.736;38.048;2022-09-03T07:32:35;5.40;;;1.60;;
36105;SDS011;22159;55.736;38.048;2022-09-03T07:35:05;7.30;;;1.67;;
36105;SDS011;22159;55.736;38.048;2022-09-03T07:37:31;8.13;;;1.83;;
36105;SDS011;22159;55.736;38.048;2022-09-03T07:39:57;7.63;;;1.65;;
36105;SDS011;22159;55.736;38.048;2022-09-03T07:42:23;6.63;;;1.60;;
36105;SDS011;22159;55.736;38.048;2022-09-03T07:44:51;5.93;;;1.35;;
36105;SDS011;22159;55.736;38.048;2022-09-03T07:47:18;6.15;;;1.65;;
36105;SDS011;22159;55.736;38.048;2022-09-03T07:49:44;5.60;;;1.52;;
36105;SDS011;22159;55.736;38.048;2022-09-03T07:52:11;5.05;;;1.20;;
36105;SDS011;22159;55.736;38.048;2022-09-03T07:54:37;7.22;;;1.58;;
36105;SDS011;22159;55.736;38.048;2022-09-03T07:57:03;4.43;;;1.27;;
36105;SDS011;22159;55.736;38.048;2022-09-03T07:59:29;10.43;;;1.85;;
36105;SDS011;22159;55.736;38.048;2022-09-03T08:01:56;5.60;;;1.60;;
36105;SDS011;22159;55.736;38.048;2022-09-03T08:04:22;4.32;;;1.40;;
36105;SDS011;22159;55.736;38.048;2022-09-03T08:06:48;6.03;;;1.63;;
36105;SDS011;22159;55.736;38.048;2022-09-03T08:09:14;7.38;;;1.23;;
36105;SDS011;22159;55.736;38.048;2022-09-03T08:11:41;6.95;;;1.38;;
36105;SDS011;22159;55.736;38.048;2022-09-03T08:14:09;7.85;;;1.10;;
36105;SDS011;22159;55.736;38.048;2022-09-03T08:16:36;6.38;;;1.52;;
36105;SDS011;22159;55.736;38.048;2022-09-03T08:19:03;4.72;;;1.20;;
36105;SDS011;22159;55.736;38.048;2022-09-03T08:21:29;5.35;;;1.10;;
36105;SDS011;22159;55.736;38.048;2022-09-03T08:23:56;4.40;;;1.08;;
36105;SDS011;22159;55.736;38.048;2022-09-03T08:26:28;4.70;;;1.10;;
36105;SDS011;22159;55.736;38.048;2022-09-03T08:28:55;6.82;;;1.38;;
36105;SDS011;22159;55.736;38.048;2022-09-03T08:31:22;6.88;;;1.50;;
36105;SDS011;22159;55.736;38.048;2022-09-03T08:33:52;10.27;;;1.30;;
36105;SDS011;22159;55.736;38.048;2022-09-03T08:36:28;11.32;;;1.50;;
36105;SDS011;22159;55.736;38.048;2022-09-03T08:38:55;9.02;;;1.58;;
36105;SDS011;22159;55.736;38.048;2022-09-03T08:46:13;8.85;;;1.40;;
36105;SDS011;22159;55.736;38.048;2022-09-03T08:48:40;5.70;;;1.20;;
36105;SDS011;22159;55.736;38.048;2022-09-03T08:51:06;5.85;;;1.35;;
36105;SDS011;22159;55.736;38.048;2022-09-03T08:56:03;5.00;;;1.35;;
36105;SDS011;22159;55.736;38.048;2022-09-03T08:58:32;4.90;;;1.13;;
36105;SDS011;22159;55.736;38.048;2022-09-03T09:13:47;4.13;;;1.00;;
36105;SDS011;22159;55.736;38.048;2022-09-03T09:18:54;4.28;;;1.10;;
36105;SDS011;22159;55.736;38.048;2022-09-03T09:21:29;4.30;;;1.10;;
36105;SDS011;22159;55.736;38.048;2022-09-03T09:24:00;2.22;;;0.80;;
36105;SDS011;22159;55.736;38.048;2022-09-03T09:26:28;4.93;;;1.20;;
36105;SDS011;22159;55.736;38.048;2022-09-03T09:28:56;4.18;;;1.15;;
36105;SDS011;22159;55.736;38.048;2022-09-03T09:31:23;6.32;;;1.33;;
36105;SDS011;22159;55.736;38.048;2022-09-03T09:33:50;4.80;;;1.10;;
36105;SDS011;22159;55.736;38.048;2022-09-03T09:36:16;6.25;;;1.30;;
36105;SDS011;22159;55.736;38.048;2022-09-03T09:38:44;5.22;;;1.20;;
36105;SDS011;22159;55.736;38.048;2022-09-03T09:41:15;7.75;;;1.05;;
36105;SDS011;22159;55.736;38.048;2022-09-03T09:43:43;5.13;;;0.95;;
36105;SDS011;22159;55.736;38.048;2022-09-03T09:49:02;1.80;;;0.80;;
36105;SDS011;22159;55.736;38.048;2022-09-03T09:51:28;5.53;;;1.17;;
36105;SDS011;22159;55.736;38.048;2022-09-03T09:56:44;3.90;;;1.00;;
36105;SDS011;22159;55.736;38.048;2022-09-03T09:59:11;2.83;;;0.90;;
36105;SDS011;22159;55.736;38.048;2022-09-03T10:01:40;3.05;;;0.80;;
36105;SDS011;22159;55.736;38.048;2022-09-03T10:06:34;3.45;;;1.17;;
36105;SDS011;22159;55.736;38.048;2022-09-03T10:09:21;4.05;;;0.93;;
36105;SDS011;22159;55.736;38.048;2022-09-03T10:11:48;2.70;;;0.90;;
36105;SDS011;22159;55.736;38.048;2022-09-03T10:14:28;4.28;;;1.02;;
36105;SDS011;22159;55.736;38.048;2022-09-03T10:22:30;4.97;;;1.02;;
36105;SDS011;22159;55.736;38.048;2022-09-03T10:25:05;3.92;;;1.17;;
36105;SDS011;22159;55.736;38.048;2022-09-03T10:27:32;3.20;;;0.82;;
36105;SDS011;22159;55.736;38.048;2022-09-03T10:30:01;3.85;;;0.90;;
36105;SDS011;22159;55.736;38.048;2022-09-03T10:35:31;1.90;;;0.98;;
36105;SDS011;22159;55.736;38.048;2022-09-03T10:43:16;5.88;;;1.23;;
36105;SDS011;22159;55.736;38.048;2022-09-03T10:50:58;2.47;;;0.73;;
36105;SDS011;22159;55.736;38.048;2022-09-03T10:53:52;2.38;;;0.90;;
36105;SDS011;22159;55.736;38.048;2022-09-03T10:58:49;3.10;;;0.93;;
36105;SDS011;22159;55.736;38.048;2022-09-03T11:07:01;4.57;;;0.90;;
36105;SDS011;22159;55.736;38.048;2022-09-03T11:09:27;3.28;;;0.80;;
36105;SDS011;22159;55.736;38.048;2022-09-03T11:14:52;2.05;;;0.70;;
36105;SDS011;22159;55.736;38.048;2022-09-03T11:17:25;2.45;;;0.85;;
36105;SDS011;22159;55.736;38.048;2022-09-03T11:20:16;4.60;;;0.90;;
36105;SDS011;22159;55.736;38.048;2022-09-03T11:22:39;3.35;;;1.10;;
36105;SDS011;22159;55.736;38.048;2022-09-03T11:25:06;2.95;;;0.82;;
36105;SDS011;22159;55.736;38.048;2022-09-03T11:30:45;1.65;;;0.63;;
36105;SDS011;22159;55.736;38.048;2022-09-03T11:33:13;4.60;;;0.90;;
36105;SDS011;22159;55.736;38.048;2022-09-03T11:35:44;4.07;;;0.80;;
36105;SDS011;22159;55.736;38.048;2022-09-03T11:40:41;2.92;;;0.75;;
36105;SDS011;22159;55.736;38.048;2022-09-03T11:43:25;2.78;;;0.90;;
36105;SDS011;22159;55.736;38.048;2022-09-03T11:48:43;2.75;;;0.70;;
36105;SDS011;22159;55.736;38.048;2022-09-03T11:56:38;2.58;;;0.80;;
36105;SDS011;22159;55.736;38.048;2022-09-03T12:01:32;3.65;;;0.90;;
36105;SDS011;22159;55.736;38.048;2022-09-03T12:17:03;3.28;;;1.02;;
36105;SDS011;22159;55.736;38.048;2022-09-03T12:21:57;6.60;;;0.95;;
36105;SDS011;22159;55.736;38.048;2022-09-03T12:24:28;5.45;;;1.20;;
36105;SDS011;22159;55.736;38.048;2022-09-03T12:27:00;5.85;;;0.90;;
36105;SDS011;22159;55.736;38.048;2022-09-03T12:29:27;2.22;;;0.77;;
36105;SDS011;22159;55.736;38.048;2022-09-03T12:31:53;4.32;;;0.82;;
36105;SDS011;22159;55.736;38.048;2022-09-03T12:34:23;4.88;;;1.00;;
36105;SDS011;22159;55.736;38.048;2022-09-03T12:36:51;3.08;;;0.95;;
36105;SDS011;22159;55.736;38.048;2022-09-03T12:39:18;7.30;;;1.00;;
36105;SDS011;22159;55.736;38.048;2022-09-03T12:44:23;3.47;;;0.80;;
36105;SDS011;22159;55.736;38.048;2022-09-03T12:46:58;2.22;;;0.75;;
36105;SDS011;22159;55.736;38.048;2022-09-03T12:49:25;6.35;;;0.93;;
36105;SDS011;22159;55.736;38.048;2022-09-03T12:51:56;1.48;;;0.73;;
36105;SDS011;22159;55.736;38.048;2022-09-03T12:54:23;2.25;;;0.90;;
36105;SDS011;22159;55.736;38.048;2022-09-03T12:56:54;1.90;;;0.85;;
36105;SDS011;22159;55.736;38.048;2022-09-03T13:01:54;2.38;;;0.65;;
36105;SDS011;22159;55.736;38.048;2022-09-03T13:04:27;1.88;;;1.00;;
36105;SDS011;22159;55.736;38.048;2022-09-03T13:06:55;2.97;;;1.02;;
36105;SDS011;22159;55.736;38.048;2022-09-03T13:11:53;2.60;;;0.70;;
36105;SDS011;22159;55.736;38.048;2022-09-03T13:14:20;2.88;;;1.00;;
36105;SDS011;22159;55.736;38.048;2022-09-03T13:16:50;4.63;;;1.08;;
36105;SDS011;22159;55.736;38.048;2022-09-03T13:21:54;3.10;;;0.80;;
36105;SDS011;22159;55.736;38.048;2022-09-03T13:32:28;5.38;;;1.02;;
36105;SDS011;22159;55.736;38.048;2022-09-03T13:37:48;3.53;;;1.05;;
36105;SDS011;22159;55.736;38.048;2022-09-03T13:40:18;4.88;;;1.55;;
36105;SDS011;22159;55.736;38.048;2022-09-03T13:42:49;3.47;;;0.98;;
36105;SDS011;22159;55.736;38.048;2022-09-03T13:50:50;3.55;;;0.93;;
36105;SDS011;22159;55.736;38.048;2022-09-03T13:56:29;5.88;;;1.30;;
36105;SDS011;22159;55.736;38.048;2022-09-03T13:59:06;5.45;;;1.20;;
36105;SDS011;22159;55.736;38.048;2022-09-03T14:01:40;6.20;;;1.33;;
36105;SDS011;22159;55.736;38.048;2022-09-03T14:04:18;6.32;;;1.60;;
36105;SDS011;22159;55.736;38.048;2022-09-03T14:17:14;7.00;;;1.50;;
36105;SDS011;22159;55.736;38.048;2022-09-03T14:19:53;11.90;;;2.03;;
36105;SDS011;22159;55.736;38.048;2022-09-03T14:22:21;7.15;;;1.48;;
36105;SDS011;22159;55.736;38.048;2022-09-03T14:27:25;11.90;;;2.35;;
36105;SDS011;22159;55.736;38.048;2022-09-03T14:29:53;11.10;;;2.13;;
36105;SDS011;22159;55.736;38.048;2022-09-03T14:32:26;6.65;;;1.98;;
36105;SDS011;22159;55.736;38.048;2022-09-03T14:34:59;11.27;;;2.35;;
36105;SDS011;22159;55.736;38.048;2022-09-03T15:00:21;10.02;;;2.00;;
36105;SDS011;22159;55.736;38.048;2022-09-03T15:13:09;5.57;;;1.63;;
36105;SDS011;22159;55.736;38.048;2022-09-03T15:23:22;7.28;;;1.65;;
36105;SDS011;22159;55.736;38.048;2022-09-03T15:36:05;5.47;;;1.50;;
36105;SDS011;22159;55.736;38.048;2022-09-03T15:39:19;7.68;;;1.70;;
36105;SDS011;22159;55.736;38.048;2022-09-03T15:44:00;9.10;;;2.05;;
36105;SDS011;22159;55.736;38.048;2022-09-03T15:49:07;11.25;;;2.03;;
36105;SDS011;22159;55.736;38.048;2022-09-03T15:51:41;6.65;;;1.80;;
36105;SDS011;22159;55.736;38.048;2022-09-03T15:54:12;10.45;;;1.80;;
36105;SDS011;22159;55.736;38.048;2022-09-03T15:56:45;5.20;;;1.73;;
36105;SDS011;22159;55.736;38.048;2022-09-03T16:04:47;6.22;;;1.92;;
36105;SDS011;22159;55.736;38.048;2022-09-03T16:10:05;6.20;;;1.75;;
36105;SDS011;22159;55.736;38.048;2022-09-03T16:15:06;7.65;;;2.05;;
36105;SDS011;22159;55.736;38.048;2022-09-03T16:17:37;5.40;;;1.92;;
36105;SDS011;22159;55.736;38.048;2022-09-03T16:20:32;7.38;;;2.30;;
36105;SDS011;22159;55.736;38.048;2022-09-03T16:25:26;9.05;;;2.40;;
36105;SDS011;22159;55.736;38.048;2022-09-03T16:27:56;6.65;;;1.90;;
36105;SDS011;22159;55.736;38.048;2022-09-03T16:51:44;9.82;;;2.58;;
36105;SDS011;22159;55.736;38.048;2022-09-03T17:18:15;10.32;;;4.18;;
36105;SDS011;22159;55.736;38.048;2022-09-03T17:23:16;13.05;;;4.50;;
36105;SDS011;22159;55.736;38.048;2022-09-03T17:34:08;15.98;;;5.38;;
36105;SDS011;22159;55.736;38.048;2022-09-03T17:36:37;12.93;;;4.97;;
36105;SDS011;22159;55.736;38.048;2022-09-03T17:41:52;15.07;;;5.88;;
36105;SDS011;22159;55.736;38.048;2022-09-03T17:47:09;16.60;;;6.50;;
36105;SDS011;22159;55.736;38.048;2022-09-03T17:49:52;17.23;;;5.45;;
36105;SDS011;22159;55.736;38.048;2022-09-03T17:54:50;16.52;;;6.05;;
36105;SDS011;22159;55.736;38.048;2022-09-03T17:57:37;13.38;;;6.22;;
36105;SDS011;22159;55.736;38.048;2022-09-03T18:00:06;16.80;;;5.95;;
36105;SDS011;22159;55.736;38.048;2022-09-03T18:02:50;13.95;;;5.68;;
36105;SDS011;22159;55.736;38.048;2022-09-03T18:05:18;15.70;;;5.93;;
36105;SDS011;22159;55.736;38.048;2022-09-03T18:07:48;14.80;;;5.70;;
36105;SDS011;22159;55.736;38.048;2022-09-03T18:12:44;13.70;;;5.72;;
36105;SDS011;22159;55.736;38.048;2022-09-03T18:15:31;13.68;;;5.65;;
36105;SDS011;22159;55.736;38.048;2022-09-03T18:18:09;14.23;;;6.10;;
36105;SDS011;22159;55.736;38.048;2022-09-03T18:20:44;19.67;;;6.85;;
36105;SDS011;22159;55.736;38.048;2022-09-03T18:23:46;19.15;;;7.30;;
36105;SDS011;22159;55.736;38.048;2022-09-03T18:26:35;16.38;;;5.97;;
36105;SDS011;22159;55.736;38.048;2022-09-03T18:32:14;14.98;;;6.55;;
36105;SDS011;22159;55.736;38.048;2022-09-03T18:34:59;14.50;;;6.45;;
36105;SDS011;22159;55.736;38.048;2022-09-03T18:37:43;13.98;;;6.28;;
36105;SDS011;22159;55.736;38.048;2022-09-03T18:40:30;15.35;;;6.22;;
36105;SDS011;22159;55.736;38.048;2022-09-03T18:43:22;14.52;;;6.57;;
36105;SDS011;22159;55.736;38.048;2022-09-03T18:49:31;13.18;;;5.68;;
36105;SDS011;22159;55.736;38.048;2022-09-03T19:01:50;13.05;;;5.60;;
36105;SDS011;22159;55.736;38.048;2022-09-03T19:07:06;14.10;;;5.55;;
36105;SDS011;22159;55.736;38.048;2022-09-03T19:09:58;11.50;;;5.85;;
36105;SDS011;22159;55.736;38.048;2022-09-03T19:12:52;11.52;;;5.43;;
36105;SDS011;22159;55.736;38.048;2022-09-03T19:15:41;10.10;;;4.75;;
36105;SDS011;22159;55.736;38.048;2022-09-03T19:18:33;13.13;;;5.50;;
36105;SDS011;22159;55.736;38.048;2022-09-03T19:21:21;12.63;;;5.07;;
36105;SDS011;22159;55.736;38.048;2022-09-03T19:24:09;13.13;;;5.95;;
36105;SDS011;22159;55.736;38.048;2022-09-03T19:26:59;10.05;;;5.00;;
36105;SDS011;22159;55.736;38.048;2022-09-03T19:32:35;10.15;;;4.88;;
36105;SDS011;22159;55.736;38.048;2022-09-03T19:35:25;9.68;;;5.55;;
36105;SDS011;22159;55.736;38.048;2022-09-03T19:38:19;9.65;;;4.90;;
36105;SDS011;22159;55.736;38.048;2022-09-03T19:41:10;11.57;;;5.22;;
36105;SDS011;22159;55.736;38.048;2022-09-03T19:52:40;11.23;;;5.18;;
36105;SDS011;22159;55.736;38.048;2022-09-03T19:55:29;8.35;;;4.35;;
36105;SDS011;22159;55.736;38.048;2022-09-03T19:58:17;9.10;;;4.45;;
36105;SDS011;22159;55.736;38.048;2022-09-03T20:01:02;9.13;;;4.10;;
36105;SDS011;22159;55.736;38.048;2022-09-03T20:03:46;9.82;;;4.30;;
36105;SDS011;22159;55.736;38.048;2022-09-03T20:06:32;8.63;;;4.63;;
36105;SDS011;22159;55.736;38.048;2022-09-03T20:09:29;9.18;;;4.22;;
36105;SDS011;22159;55.736;38.048;2022-09-03T20:12:15;7.03;;;4.50;;
36105;SDS011;22159;55.736;38.048;2022-09-03T20:14:42;7.53;;;4.18;;
36105;SDS011;22159;55.736;38.048;2022-09-03T20:17:21;9.73;;;4.47;;
36105;SDS011;22159;55.736;38.048;2022-09-03T20:20:03;9.27;;;4.55;;
36105;SDS011;22159;55.736;38.048;2022-09-03T20:36:07;9.88;;;4.25;;
36105;SDS011;22159;55.736;38.048;2022-09-03T20:41:18;9.13;;;4.03;;
36105;SDS011;22159;55.736;38.048;2022-09-03T20:48:56;9.05;;;4.25;;
36105;SDS011;22159;55.736;38.048;2022-09-03T20:51:30;7.57;;;4.00;;
36105;SDS011;22159;55.736;38.048;2022-09-03T20:54:06;8.95;;;4.85;;
36105;SDS011;22159;55.736;38.048;2022-09-03T20:56:38;10.30;;;4.30;;
36105;SDS011;22159;55.736;38.048;2022-09-03T21:06:52;8.05;;;3.88;;
36105;SDS011;22159;55.736;38.048;2022-09-03T21:12:05;5.43;;;3.38;;
36105;SDS011;22159;55.736;38.048;2022-09-03T21:14:41;6.15;;;3.60;;
36105;SDS011;22159;55.736;38.048;2022-09-03T21:19:59;6.05;;;4.18;;
36105;SDS011;22159;55.736;38.048;2022-09-03T21:25:12;10.02;;;3.80;;
36105;SDS011;22159;55.736;38.048;2022-09-03T21:27:44;8.73;;;3.97;;
36105;SDS011;22159;55.736;38.048;2022-09-03T21:30:17;5.35;;;3.38;;
36105;SDS011;22159;55.736;38.048;2022-09-03T21:35:12;8.40;;;4.28;;
36105;SDS011;22159;55.736;38.048;2022-09-03T21:37:44;5.72;;;3.47;;
36105;SDS011;22159;55.736;38.048;2022-09-03T21:40:12;5.75;;;3.72;;
36105;SDS011;22159;55.736;38.048;2022-09-03T21:42:45;5.45;;;3.15;;
36105;SDS011;22159;55.736;38.048;2022-09-03T21:48:05;5.70;;;3.17;;
36105;SDS011;22159;55.736;38.048;2022-09-03T21:53:29;7.40;;;3.35;;
36105;SDS011;22159;55.736;38.048;2022-09-03T21:59:46;6.65;;;3.97;;